You are here: Women's Nordic Skiing Archives
 

Women's Nordic Skiing Archives

 
 
2005 NorAm SuperTour at Mt. Itasca
Sat, January 22, 2005
Mt. Itasca Ski Area
Coleraine, MN
OFFICIAL CLASS RESULTS
Finish Line Sports
www.finishlinesports.com
Course Weather: Sunny
Course Temperature: 11° F
Course Wind: NW 10-15

Team Results
1. NMU 66
2. UAF 54
3. UWGB 47
4. GAC 41
5. STO 33
6. MTU 30
7. CSB 18
8. SCSU 10

Individual Results
College Female
Place BIB # Name Time Time Back Club USSA/FIS # CXC # Pace
1. Turunen, Johanna 32:24.99 1 32 UAF X5880364 4129 3:14/K
2. Weier, Lindsey 32:53.01 2 00:28.02 26 NMU C5522420 4304 3:17/K
3. Kochen, Tami 33:15.44 3 00:50.45 21 NMU R5479225 4300 3:20/K
4. Williams, Lindsay 33:25.07 4 01:00.08 27 NMU C5730833 4305 3:21/K
5. Owen, Kristina 33:52.05 5 01:27.06 36 MTU P5624168 4272 3:23/K
6. Stuber, Maria 33:55.78 6 01:30.79 30 NMU C5729777 4303 3:24/K
7. Smyth, Morgan 34:24.27 7 01:59.28 28 NMU E5744859 4302 3:26/K
8. Rice, Kasandra 35:38.25 8 03:13.26 29 UAF A5313879 4128 3:34/K
9. Cook, Tanya 35:54.01 9 03:29.02 15 UWGB C5731468 4195 3:35/K
10. Winters, Johanna 36:33.28 10 04:08.29 1 UWGB C5731930 4201 3:39/K
11. Wygant, Jennifer 36:36.17 11 04:11.18 22 NMU C5793039 4306 3:40/K
12. Daw, Chandra 37:38.31 12 05:13.32 5 GAC C5947858 3:46/K
13. Edlund, Laura 37:44.33 13 05:19.34 9 GAC C5797600 4155 3:46/K

14. Dale, Linn 38:10.50 14 05:45.51 8 STOLAF X5972955 3:49/K
15. Schurke, Bria 38:46.18 15 06:21.19 48 STOLAF 4324 3:53/K
16. Walsh, Rosy 38:46.56 16 06:21.57 10 UWGB C5765680 4200 3:53/K
17. Rader, Heidi 38:48.08 17 06:23.09 4 UAF A5894647 4127 3:53/K
18. Fisher, Christina 39:13.59 18 06:48.60 3 UWGB C5854716 4196 3:55/K
19. Damrow, Kelly 39:18.50 19 06:53.51 2 GAC C5949805 3:56/K
20. Dewahl, Kathleen 39:58.72 20 07:33.73 40 GAC 4154 4:00/K
21. Taipale, Ritva 40:37.89 21 08:12.90 52 GAC 4158 4:04/K
22. Kittock, Melissa 41:01.26 22 08:36.27 14 GAC C5952585 4156 4:06/K

23. Pletcher, Ashley 41:27.01 23 09:02.02 20 UWGB C5843073 4198 4:09/K
24. Zupan, Katherine 41:32.19 24 09:07.20 42 CSB 4228 4:09/K
25. Warneke, Julie 43:03.69 25 10:38.70 7 SCSU C5901525 4337 4:18/K
26. Weyandt, Trisha 43:31.95 26 11:06.96 51 MTU 4:21/K
27. Finstad, Krynn 43:47.09 27 11:22.10 19 UAF A5841945 4124 4:23/K
28. Hedberg, Jennie 43:53.34 28 11:28.35 41 STOLAF 4345 4:23/K
29. Wubbels, Kelly 44:06.59 29 11:41.60 39 CSB 4227 4:25/K
30. Argabright, Jessica 45:51.40 30 13:26.41 46 CSB 4212 4:35/K
31. Metz, Andrea 46:08.87 31 13:43.88 53 MTU 4270 4:37/K
32. Peterson, Tessa 46:54.33 32 14:29.34 44 CSB 4222 4:41/K
33. Jordan, Marie 47:29.27 33 15:04.28 18 SCSU C5938220 4335 4:45/K
34. Williams, Rachel 47:42.21 34 15:17.22 50 CSB 4226 4:46/K
35. Peterson, Britt 47:58.15 35 15:33.16 43 CSB 4220 4:48/K
36. McCaulley, Maddie 49:22.44 36 16:57.45 47 STOLAF 4325 4:56/K
37. Block, Stephanie DNF 11 STOLAF C5891478 4320
38. Halla, Kristin DNS 49 UAF 4549

MIAC: Minnesota Intercollegiate Athletic Conference

NCAA

 
 
Rate this:
Gustavus Adolphus College 800 West College Avenue
Saint Peter, MN 56082 USA
WORK (PREFERRED) 507-933-8000
Contact Us
Employment
Privacy Policy
 
© Copyright 2010, Gustavus Adolphus College, All Rights Reserved